sensor_id;sensor_type;location;lat;lon;timestamp;pressure;altitude;pressure_sealevel;temperature;humidity
25526;BME280;13424;48.424;11.258;2023-02-13T00:04:27;97453.25;;;3.36;84.16
25526;BME280;13424;48.424;11.258;2023-02-13T00:06:52;97450.09;;;3.33;84.70
25526;BME280;13424;48.424;11.258;2023-02-13T00:09:18;97444.09;;;3.13;84.52
25526;BME280;13424;48.424;11.258;2023-02-13T00:16:19;97441.81;;;2.73;87.09
25526;BME280;13424;48.424;11.258;2023-02-13T00:18:45;97450.06;;;3.15;85.92
25526;BME280;13424;48.424;11.258;2023-02-13T00:21:11;97447.66;;;3.22;85.06
25526;BME280;13424;48.424;11.258;2023-02-13T00:23:38;97446.16;;;3.37;84.49
25526;BME280;13424;48.424;11.258;2023-02-13T00:26:08;97442.66;;;3.64;83.43
25526;BME280;13424;48.424;11.258;2023-02-13T00:28:34;97449.44;;;3.49;84.03
25526;BME280;13424;48.424;11.258;2023-02-13T00:31:14;97446.75;;;3.13;85.68
25526;BME280;13424;48.424;11.258;2023-02-13T00:33:40;97444.13;;;3.31;84.25
25526;BME280;13424;48.424;11.258;2023-02-13T00:36:24;97452.06;;;3.03;86.37
25526;BME280;13424;48.424;11.258;2023-02-13T00:38:52;97448.22;;;2.98;86.54
25526;BME280;13424;48.424;11.258;2023-02-13T00:41:20;97438.13;;;2.93;86.93
25526;BME280;13424;48.424;11.258;2023-02-13T00:44:23;97438.41;;;2.63;87.17
25526;BME280;13424;48.424;11.258;2023-02-13T00:46:48;97442.09;;;3.25;85.41
25526;BME280;13424;48.424;11.258;2023-02-13T00:49:16;97442.53;;;3.38;84.44
25526;BME280;13424;48.424;11.258;2023-02-13T00:51:41;97445.41;;;3.27;85.21
25526;BME280;13424;48.424;11.258;2023-02-13T00:54:07;97443.50;;;3.01;86.17
25526;BME280;13424;48.424;11.258;2023-02-13T00:56:33;97451.38;;;3.47;84.68
25526;BME280;13424;48.424;11.258;2023-02-13T00:58:59;97442.34;;;3.49;83.54
25526;BME280;13424;48.424;11.258;2023-02-13T01:01:25;97440.31;;;3.43;84.06
25526;BME280;13424;48.424;11.258;2023-02-13T01:03:50;97442.25;;;3.41;84.08
25526;BME280;13424;48.424;11.258;2023-02-13T01:06:16;97432.84;;;3.74;83.18
25526;BME280;13424;48.424;11.258;2023-02-13T01:08:42;97441.38;;;3.94;82.02
25526;BME280;13424;48.424;11.258;2023-02-13T01:11:08;97451.00;;;3.95;82.11
25526;BME280;13424;48.424;11.258;2023-02-13T01:13:35;97453.72;;;3.68;83.23
25526;BME280;13424;48.424;11.258;2023-02-13T01:16:00;97451.69;;;3.61;83.81
25526;BME280;13424;48.424;11.258;2023-02-13T01:18:26;97450.94;;;3.33;84.70
25526;BME280;13424;48.424;11.258;2023-02-13T01:21:01;97438.47;;;3.26;85.33
25526;BME280;13424;48.424;11.258;2023-02-13T01:23:36;97440.06;;;3.36;84.45
25526;BME280;13424;48.424;11.258;2023-02-13T01:26:05;97443.84;;;3.34;84.74
25526;BME280;13424;48.424;11.258;2023-02-13T01:28:31;97448.31;;;3.06;85.81
25526;BME280;13424;48.424;11.258;2023-02-13T01:30:57;97452.13;;;2.94;86.02
25526;BME280;13424;48.424;11.258;2023-02-13T01:33:25;97445.56;;;3.43;83.97
25526;BME280;13424;48.424;11.258;2023-02-13T01:35:52;97454.91;;;3.20;86.13
25526;BME280;13424;48.424;11.258;2023-02-13T01:38:18;97448.88;;;3.45;84.05
25526;BME280;13424;48.424;11.258;2023-02-13T01:40:46;97450.06;;;2.88;86.19
25526;BME280;13424;48.424;11.258;2023-02-13T01:43:12;97446.50;;;3.06;85.70
25526;BME280;13424;48.424;11.258;2023-02-13T01:45:38;97440.22;;;3.17;85.41
25526;BME280;13424;48.424;11.258;2023-02-13T01:48:18;97441.78;;;3.28;85.06
25526;BME280;13424;48.424;11.258;2023-02-13T01:51:01;97442.44;;;3.12;85.17
25526;BME280;13424;48.424;11.258;2023-02-13T01:54:20;97438.44;;;3.08;85.22
25526;BME280;13424;48.424;11.258;2023-02-13T01:57:13;97448.44;;;3.32;84.43
25526;BME280;13424;48.424;11.258;2023-02-13T01:59:58;97446.41;;;2.98;85.30
25526;BME280;13424;48.424;11.258;2023-02-13T02:02:27;97449.19;;;3.42;84.47
25526;BME280;13424;48.424;11.258;2023-02-13T02:04:54;97449.34;;;3.76;83.36
25526;BME280;13424;48.424;11.258;2023-02-13T02:07:23;97442.94;;;3.25;84.20
25526;BME280;13424;48.424;11.258;2023-02-13T02:09:53;97446.47;;;3.70;83.56
25526;BME280;13424;48.424;11.258;2023-02-13T02:12:31;97449.34;;;3.58;83.23
25526;BME280;13424;48.424;11.258;2023-02-13T02:15:32;97440.13;;;3.62;83.25
25526;BME280;13424;48.424;11.258;2023-02-13T02:17:58;97439.91;;;3.38;83.32
25526;BME280;13424;48.424;11.258;2023-02-13T02:23:57;97441.94;;;3.44;83.63
25526;BME280;13424;48.424;11.258;2023-02-13T02:27:09;97440.25;;;2.80;86.70
25526;BME280;13424;48.424;11.258;2023-02-13T02:30:31;97433.81;;;2.92;86.35
25526;BME280;13424;48.424;11.258;2023-02-13T02:33:07;97441.25;;;2.79;85.86
25526;BME280;13424;48.424;11.258;2023-02-13T02:39:01;97435.50;;;2.84;86.70
25526;BME280;13424;48.424;11.258;2023-02-13T02:42:09;97445.03;;;3.22;84.73
25526;BME280;13424;48.424;11.258;2023-02-13T02:45:36;97435.22;;;3.14;84.71
25526;BME280;13424;48.424;11.258;2023-02-13T02:51:23;97436.50;;;2.83;85.57
25526;BME280;13424;48.424;11.258;2023-02-13T02:54:12;97431.00;;;3.21;84.67
25526;BME280;13424;48.424;11.258;2023-02-13T02:57:08;97427.28;;;2.96;85.29
25526;BME280;13424;48.424;11.258;2023-02-13T02:59:35;97432.97;;;3.19;84.60
25526;BME280;13424;48.424;11.258;2023-02-13T03:02:21;97432.78;;;3.48;83.13
25526;BME280;13424;48.424;11.258;2023-02-13T03:05:19;97438.72;;;3.68;82.94
25526;BME280;13424;48.424;11.258;2023-02-13T03:08:05;97433.34;;;3.78;81.76
25526;BME280;13424;48.424;11.258;2023-02-13T03:10:32;97434.25;;;3.69;81.94
25526;BME280;13424;48.424;11.258;2023-02-13T03:16:55;97436.75;;;3.88;81.35
25526;BME280;13424;48.424;11.258;2023-02-13T03:23:19;97443.25;;;3.58;81.89
25526;BME280;13424;48.424;11.258;2023-02-13T03:34:38;97439.16;;;3.81;81.24
25526;BME280;13424;48.424;11.258;2023-02-13T03:37:29;97431.75;;;3.85;81.58
25526;BME280;13424;48.424;11.258;2023-02-13T03:43:12;97434.56;;;3.66;82.40
25526;BME280;13424;48.424;11.258;2023-02-13T03:45:42;97432.59;;;3.68;82.23
25526;BME280;13424;48.424;11.258;2023-02-13T03:48:35;97433.13;;;3.35;83.60
25526;BME280;13424;48.424;11.258;2023-02-13T03:51:52;97433.06;;;3.45;82.74
25526;BME280;13424;48.424;11.258;2023-02-13T03:54:54;97439.50;;;3.15;84.06
25526;BME280;13424;48.424;11.258;2023-02-13T03:57:41;97433.97;;;3.36;83.09
25526;BME280;13424;48.424;11.258;2023-02-13T04:00:28;97437.75;;;3.51;82.21
25526;BME280;13424;48.424;11.258;2023-02-13T04:03:36;97442.56;;;3.56;82.22
25526;BME280;13424;48.424;11.258;2023-02-13T04:06:15;97446.63;;;3.50;81.79
25526;BME280;13424;48.424;11.258;2023-02-13T04:08:43;97450.53;;;3.46;81.78
25526;BME280;13424;48.424;11.258;2023-02-13T04:11:34;97445.56;;;3.43;81.49
25526;BME280;13424;48.424;11.258;2023-02-13T04:15:00;97448.06;;;3.45;81.78
25526;BME280;13424;48.424;11.258;2023-02-13T04:17:38;97448.47;;;3.04;82.69
25526;BME280;13424;48.424;11.258;2023-02-13T04:20:07;97450.63;;;3.54;81.51
25526;BME280;13424;48.424;11.258;2023-02-13T04:22:33;97449.28;;;3.68;80.90
25526;BME280;13424;48.424;11.258;2023-02-13T04:24:59;97459.09;;;3.13;82.15
25526;BME280;13424;48.424;11.258;2023-02-13T04:27:26;97462.47;;;3.50;81.69
25526;BME280;13424;48.424;11.258;2023-02-13T04:29:52;97460.41;;;3.62;81.15
25526;BME280;13424;48.424;11.258;2023-02-13T04:32:18;97463.88;;;3.62;81.45
25526;BME280;13424;48.424;11.258;2023-02-13T04:34:44;97465.78;;;3.70;80.64
25526;BME280;13424;48.424;11.258;2023-02-13T04:37:10;97470.47;;;3.76;80.39
25526;BME280;13424;48.424;11.258;2023-02-13T04:39:35;97466.44;;;3.54;81.38
25526;BME280;13424;48.424;11.258;2023-02-13T04:42:01;97477.22;;;3.79;80.40
25526;BME280;13424;48.424;11.258;2023-02-13T04:44:27;97471.53;;;3.66;80.55
25526;BME280;13424;48.424;11.258;2023-02-13T04:46:53;97467.00;;;3.40;81.17
25526;BME280;13424;48.424;11.258;2023-02-13T04:49:18;97470.75;;;3.55;80.62
25526;BME280;13424;48.424;11.258;2023-02-13T04:51:44;97466.59;;;3.71;80.21
25526;BME280;13424;48.424;11.258;2023-02-13T04:54:10;97471.44;;;3.75;80.99
25526;BME280;13424;48.424;11.258;2023-02-13T04:56:36;97469.53;;;4.03;79.29
25526;BME280;13424;48.424;11.258;2023-02-13T04:59:02;97474.00;;;3.85;80.07
25526;BME280;13424;48.424;11.258;2023-02-13T05:01:27;97467.91;;;4.10;79.46
25526;BME280;13424;48.424;11.258;2023-02-13T05:03:53;97480.22;;;4.19;79.03
25526;BME280;13424;48.424;11.258;2023-02-13T05:06:31;97474.25;;;3.74;80.30
25526;BME280;13424;48.424;11.258;2023-02-13T05:08:57;97465.84;;;3.25;81.46
25526;BME280;13424;48.424;11.258;2023-02-13T05:11:44;97470.13;;;2.98;82.63
25526;BME280;13424;48.424;11.258;2023-02-13T05:14:10;97471.88;;;3.07;83.09
25526;BME280;13424;48.424;11.258;2023-02-13T05:16:37;97477.59;;;3.30;81.45
25526;BME280;13424;48.424;11.258;2023-02-13T05:19:03;97476.69;;;3.40;81.25
25526;BME280;13424;48.424;11.258;2023-02-13T05:21:28;97469.34;;;2.88;83.32
25526;BME280;13424;48.424;11.258;2023-02-13T05:28:18;97476.22;;;3.08;81.95
25526;BME280;13424;48.424;11.258;2023-02-13T05:31:03;97472.06;;;3.24;82.60
25526;BME280;13424;48.424;11.258;2023-02-13T05:33:29;97480.09;;;3.32;81.96
25526;BME280;13424;48.424;11.258;2023-02-13T05:35:54;97469.88;;;3.64;80.65
25526;BME280;13424;48.424;11.258;2023-02-13T05:38:20;97477.78;;;3.64;80.53
25526;BME280;13424;48.424;11.258;2023-02-13T05:40:46;97468.41;;;3.52;79.76
25526;BME280;13424;48.424;11.258;2023-02-13T05:43:12;97470.41;;;3.23;81.87
25526;BME280;13424;48.424;11.258;2023-02-13T05:45:38;97478.41;;;3.31;81.81
25526;BME280;13424;48.424;11.258;2023-02-13T05:48:04;97469.13;;;3.09;82.61
25526;BME280;13424;48.424;11.258;2023-02-13T05:50:29;97464.63;;;3.55;80.74
25526;BME280;13424;48.424;11.258;2023-02-13T05:52:55;97471.97;;;3.43;81.13
25526;BME280;13424;48.424;11.258;2023-02-13T05:55:21;97477.25;;;3.43;81.56
25526;BME280;13424;48.424;11.258;2023-02-13T05:57:47;97477.84;;;3.90;80.55
25526;BME280;13424;48.424;11.258;2023-02-13T06:00:28;97483.44;;;4.31;77.94
25526;BME280;13424;48.424;11.258;2023-02-13T06:02:54;97480.66;;;3.89;79.28
25526;BME280;13424;48.424;11.258;2023-02-13T06:05:20;97479.03;;;3.78;80.22
25526;BME280;13424;48.424;11.258;2023-02-13T06:07:45;97476.03;;;3.55;80.35
25526;BME280;13424;48.424;11.258;2023-02-13T06:10:11;97483.81;;;3.75;79.92
25526;BME280;13424;48.424;11.258;2023-02-13T06:12:37;97492.66;;;3.38;80.70
25526;BME280;13424;48.424;11.258;2023-02-13T06:15:03;97496.47;;;3.71;80.01
25526;BME280;13424;48.424;11.258;2023-02-13T06:17:30;97491.81;;;3.83;79.82
25526;BME280;13424;48.424;11.258;2023-02-13T06:19:56;97491.50;;;3.86;80.43
25526;BME280;13424;48.424;11.258;2023-02-13T06:22:22;97498.50;;;4.13;78.78
25526;BME280;13424;48.424;11.258;2023-02-13T06:24:47;97499.25;;;4.05;79.18
25526;BME280;13424;48.424;11.258;2023-02-13T06:27:13;97495.50;;;3.90;79.30
25526;BME280;13424;48.424;11.258;2023-02-13T06:29:39;97498.44;;;3.87;79.29
25526;BME280;13424;48.424;11.258;2023-02-13T06:32:08;97504.16;;;4.00;78.86
25526;BME280;13424;48.424;11.258;2023-02-13T06:34:33;97513.59;;;3.85;79.69
25526;BME280;13424;48.424;11.258;2023-02-13T06:36:59;97497.97;;;3.91;79.43
25526;BME280;13424;48.424;11.258;2023-02-13T06:39:25;97510.97;;;3.85;79.40
25526;BME280;13424;48.424;11.258;2023-02-13T06:41:51;97516.56;;;3.82;79.55
25526;BME280;13424;48.424;11.258;2023-02-13T06:44:17;97513.94;;;3.36;80.34
25526;BME280;13424;48.424;11.258;2023-02-13T06:46:42;97516.16;;;3.77;79.19
25526;BME280;13424;48.424;11.258;2023-02-13T06:49:09;97516.31;;;3.93;79.38
25526;BME280;13424;48.424;11.258;2023-02-13T06:51:34;97516.31;;;3.57;79.76
25526;BME280;13424;48.424;11.258;2023-02-13T06:54:00;97520.09;;;3.73;79.05
25526;BME280;13424;48.424;11.258;2023-02-13T06:56:27;97528.59;;;3.49;79.96
25526;BME280;13424;48.424;11.258;2023-02-13T06:58:52;97526.78;;;3.85;79.30
25526;BME280;13424;48.424;11.258;2023-02-13T07:01:18;97534.94;;;4.09;78.50
25526;BME280;13424;48.424;11.258;2023-02-13T07:03:44;97534.03;;;4.01;78.41
25526;BME280;13424;48.424;11.258;2023-02-13T07:06:19;97539.06;;;3.58;79.78
25526;BME280;13424;48.424;11.258;2023-02-13T07:08:46;97540.53;;;3.88;79.26
25526;BME280;13424;48.424;11.258;2023-02-13T07:15:18;97542.72;;;3.93;78.50
25526;BME280;13424;48.424;11.258;2023-02-13T07:17:44;97541.66;;;3.86;79.04
25526;BME280;13424;48.424;11.258;2023-02-13T07:20:11;97549.50;;;4.13;78.75
25526;BME280;13424;48.424;11.258;2023-02-13T07:22:37;97548.97;;;4.10;78.77
25526;BME280;13424;48.424;11.258;2023-02-13T07:25:04;97548.78;;;4.47;76.89
25526;BME280;13424;48.424;11.258;2023-02-13T07:27:29;97556.78;;;4.11;78.46
25526;BME280;13424;48.424;11.258;2023-02-13T07:29:56;97554.63;;;4.15;78.95
25526;BME280;13424;48.424;11.258;2023-02-13T07:32:23;97557.03;;;4.44;77.48
25526;BME280;13424;48.424;11.258;2023-02-13T07:34:49;97563.19;;;4.27;78.05
25526;BME280;13424;48.424;11.258;2023-02-13T07:37:15;97559.06;;;4.32;76.84
25526;BME280;13424;48.424;11.258;2023-02-13T07:39:40;97562.50;;;4.68;76.16
25526;BME280;13424;48.424;11.258;2023-02-13T07:42:06;97555.22;;;4.70;75.76
25526;BME280;13424;48.424;11.258;2023-02-13T07:44:32;97555.59;;;4.32;77.73
25526;BME280;13424;48.424;11.258;2023-02-13T07:46:58;97563.97;;;4.45;77.24
25526;BME280;13424;48.424;11.258;2023-02-13T07:49:25;97557.88;;;4.96;75.31
25526;BME280;13424;48.424;11.258;2023-02-13T07:51:51;97561.19;;;4.46;76.95
25526;BME280;13424;48.424;11.258;2023-02-13T07:54:17;97552.91;;;4.24;78.30
25526;BME280;13424;48.424;11.258;2023-02-13T07:56:42;97552.84;;;4.59;77.00
25526;BME280;13424;48.424;11.258;2023-02-13T07:59:09;97559.13;;;4.58;76.07
25526;BME280;13424;48.424;11.258;2023-02-13T08:01:35;97559.03;;;4.68;76.25
25526;BME280;13424;48.424;11.258;2023-02-13T08:04:01;97568.53;;;4.35;77.51
25526;BME280;13424;48.424;11.258;2023-02-13T08:06:27;97564.59;;;4.39;77.23
25526;BME280;13424;48.424;11.258;2023-02-13T08:08:52;97567.03;;;4.14;76.81
25526;BME280;13424;48.424;11.258;2023-02-13T08:11:39;97562.94;;;4.20;78.38
25526;BME280;13424;48.424;11.258;2023-02-13T08:14:25;97567.41;;;4.63;76.78
25526;BME280;13424;48.424;11.258;2023-02-13T08:16:52;97570.06;;;4.19;78.63
25526;BME280;13424;48.424;11.258;2023-02-13T08:19:18;97559.13;;;4.58;76.99
25526;BME280;13424;48.424;11.258;2023-02-13T08:21:44;97565.69;;;4.54;76.88
25526;BME280;13424;48.424;11.258;2023-02-13T08:24:11;97564.53;;;4.74;76.42
25526;BME280;13424;48.424;11.258;2023-02-13T08:26:37;97564.19;;;4.34;77.77
25526;BME280;13424;48.424;11.258;2023-02-13T08:29:04;97562.09;;;4.37;78.59
25526;BME280;13424;48.424;11.258;2023-02-13T08:31:36;97566.38;;;4.56;77.57
25526;BME280;13424;48.424;11.258;2023-02-13T08:34:02;97554.41;;;4.70;77.39
25526;BME280;13424;48.424;11.258;2023-02-13T08:36:29;97563.06;;;4.80;77.17
25526;BME280;13424;48.424;11.258;2023-02-13T08:38:55;97559.59;;;5.06;75.95
25526;BME280;13424;48.424;11.258;2023-02-13T08:41:21;97564.69;;;4.99;75.24
25526;BME280;13424;48.424;11.258;2023-02-13T08:43:48;97561.66;;;4.94;75.60
25526;BME280;13424;48.424;11.258;2023-02-13T08:46:15;97567.72;;;4.60;76.89
25526;BME280;13424;48.424;11.258;2023-02-13T08:48:42;97572.13;;;4.34;78.25
25526;BME280;13424;48.424;11.258;2023-02-13T08:51:10;97571.78;;;4.29;78.91
25526;BME280;13424;48.424;11.258;2023-02-13T08:53:36;97566.34;;;4.74;78.14
25526;BME280;13424;48.424;11.258;2023-02-13T08:56:03;97574.34;;;4.64;78.02
25526;BME280;13424;48.424;11.258;2023-02-13T08:58:29;97568.34;;;5.06;75.69
25526;BME280;13424;48.424;11.258;2023-02-13T09:00:56;97561.78;;;4.58;77.29
25526;BME280;13424;48.424;11.258;2023-02-13T09:03:22;97565.75;;;5.14;75.44
25526;BME280;13424;48.424;11.258;2023-02-13T09:05:48;97571.13;;;5.04;75.59
25526;BME280;13424;48.424;11.258;2023-02-13T09:08:54;97577.66;;;5.18;75.59
25526;BME280;13424;48.424;11.258;2023-02-13T09:11:20;97576.50;;;4.87;76.40
25526;BME280;13424;48.424;11.258;2023-02-13T09:13:48;97574.31;;;5.08;76.08
25526;BME280;13424;48.424;11.258;2023-02-13T09:16:15;97577.88;;;5.25;75.94
25526;BME280;13424;48.424;11.258;2023-02-13T09:18:40;97577.13;;;5.41;75.16
25526;BME280;13424;48.424;11.258;2023-02-13T09:21:09;97576.69;;;5.62;74.14
25526;BME280;13424;48.424;11.258;2023-02-13T09:23:37;97579.47;;;5.52;75.27
25526;BME280;13424;48.424;11.258;2023-02-13T09:26:07;97585.91;;;5.49;75.36
25526;BME280;13424;48.424;11.258;2023-02-13T09:28:34;97580.88;;;5.30;75.62
25526;BME280;13424;48.424;11.258;2023-02-13T09:31:19;97583.91;;;5.43;75.51
25526;BME280;13424;48.424;11.258;2023-02-13T09:33:46;97585.97;;;5.23;75.87
25526;BME280;13424;48.424;11.258;2023-02-13T09:36:15;97579.31;;;5.19;76.24
25526;BME280;13424;48.424;11.258;2023-02-13T09:38:47;97587.91;;;4.87;76.86
25526;BME280;13424;48.424;11.258;2023-02-13T09:41:22;97588.13;;;5.28;75.25
25526;BME280;13424;48.424;11.258;2023-02-13T09:44:12;97594.25;;;5.28;75.44
25526;BME280;13424;48.424;11.258;2023-02-13T09:47:12;97583.41;;;5.06;76.35
25526;BME280;13424;48.424;11.258;2023-02-13T09:49:43;97589.09;;;4.67;76.73
25526;BME280;13424;48.424;11.258;2023-02-13T09:52:10;97587.44;;;4.92;77.01
25526;BME280;13424;48.424;11.258;2023-02-13T09:54:36;97587.41;;;4.04;79.02
25526;BME280;13424;48.424;11.258;2023-02-13T09:57:24;97591.22;;;4.45;78.65
25526;BME280;13424;48.424;11.258;2023-02-13T10:00:20;97591.94;;;4.30;79.28
25526;BME280;13424;48.424;11.258;2023-02-13T10:03:27;97597.09;;;4.57;78.84
25526;BME280;13424;48.424;11.258;2023-02-13T10:06:06;97592.56;;;4.93;78.14
25526;BME280;13424;48.424;11.258;2023-02-13T10:08:45;97590.22;;;5.16;78.05
25526;BME280;13424;48.424;11.258;2023-02-13T10:11:51;97590.47;;;5.05;77.33
25526;BME280;13424;48.424;11.258;2023-02-13T10:14:51;97593.38;;;5.54;75.71
25526;BME280;13424;48.424;11.258;2023-02-13T10:17:44;97593.28;;;5.03;76.53
25526;BME280;13424;48.424;11.258;2023-02-13T10:20:26;97602.63;;;4.46;78.47
25526;BME280;13424;48.424;11.258;2023-02-13T10:26:01;97590.09;;;4.48;79.11
25526;BME280;13424;48.424;11.258;2023-02-13T10:31:11;97590.06;;;5.52;76.69
25526;BME280;13424;48.424;11.258;2023-02-13T10:33:57;97584.56;;;5.87;75.19
25526;BME280;13424;48.424;11.258;2023-02-13T10:36:36;97591.06;;;5.59;76.11
25526;BME280;13424;48.424;11.258;2023-02-13T10:41:52;97588.66;;;5.31;76.05
25526;BME280;13424;48.424;11.258;2023-02-13T10:44:44;97585.00;;;5.32;76.56
25526;BME280;13424;48.424;11.258;2023-02-13T10:47:42;97572.31;;;5.86;75.55
25526;BME280;13424;48.424;11.258;2023-02-13T10:54:28;97567.03;;;5.44;76.21
25526;BME280;13424;48.424;11.258;2023-02-13T10:57:05;97577.56;;;5.70;75.14
25526;BME280;13424;48.424;11.258;2023-02-13T11:02:33;97568.19;;;5.42;76.38
25526;BME280;13424;48.424;11.258;2023-02-13T11:05:21;97565.06;;;5.97;75.17
25526;BME280;13424;48.424;11.258;2023-02-13T11:07:48;97561.94;;;6.09;74.69
25526;BME280;13424;48.424;11.258;2023-02-13T11:10:21;97559.09;;;5.95;74.93
25526;BME280;13424;48.424;11.258;2023-02-13T11:12:48;97560.16;;;6.26;74.66
25526;BME280;13424;48.424;11.258;2023-02-13T11:15:31;97556.47;;;6.03;75.88
25526;BME280;13424;48.424;11.258;2023-02-13T11:18:17;97544.13;;;5.69;75.68
25526;BME280;13424;48.424;11.258;2023-02-13T11:20:44;97548.88;;;6.32;74.45
25526;BME280;13424;48.424;11.258;2023-02-13T11:23:33;97543.22;;;5.95;76.37
25526;BME280;13424;48.424;11.258;2023-02-13T11:26:08;97548.16;;;5.98;75.83
25526;BME280;13424;48.424;11.258;2023-02-13T11:28:46;97545.13;;;5.76;75.90
25526;BME280;13424;48.424;11.258;2023-02-13T11:31:26;97547.72;;;6.27;74.74
25526;BME280;13424;48.424;11.258;2023-02-13T11:33:52;97541.25;;;6.29;73.37
25526;BME280;13424;48.424;11.258;2023-02-13T11:36:31;97552.38;;;6.41;73.84
25526;BME280;13424;48.424;11.258;2023-02-13T11:39:00;97543.59;;;6.24;74.02
25526;BME280;13424;48.424;11.258;2023-02-13T11:41:27;97546.56;;;6.29;73.97
25526;BME280;13424;48.424;11.258;2023-02-13T11:43:56;97548.53;;;6.27;74.66
25526;BME280;13424;48.424;11.258;2023-02-13T11:46:28;97549.03;;;6.47;74.33
25526;BME280;13424;48.424;11.258;2023-02-13T11:49:05;97546.13;;;5.83;75.34
25526;BME280;13424;48.424;11.258;2023-02-13T11:51:45;97547.94;;;5.83;75.99
25526;BME280;13424;48.424;11.258;2023-02-13T11:56:57;97556.41;;;5.86;76.08
25526;BME280;13424;48.424;11.258;2023-02-13T11:59:25;97548.03;;;6.15;74.68
25526;BME280;13424;48.424;11.258;2023-02-13T12:04:39;97543.22;;;5.95;75.82
25526;BME280;13424;48.424;11.258;2023-02-13T12:07:19;97543.06;;;6.04;76.48
25526;BME280;13424;48.424;11.258;2023-02-13T12:10:33;97537.91;;;5.95;76.75
25526;BME280;13424;48.424;11.258;2023-02-13T12:12:44;97540.06;;;5.99;76.14
25526;BME280;13424;48.424;11.258;2023-02-13T12:15:25;97542.56;;;6.01;77.00
25526;BME280;13424;48.424;11.258;2023-02-13T12:18:33;97542.59;;;5.58;76.93
25526;BME280;13424;48.424;11.258;2023-02-13T12:21:28;97540.59;;;6.19;75.98
25526;BME280;13424;48.424;11.258;2023-02-13T12:27:28;97535.03;;;5.80;77.77
25526;BME280;13424;48.424;11.258;2023-02-13T12:33:42;97535.09;;;5.96;76.28
25526;BME280;13424;48.424;11.258;2023-02-13T12:36:33;97526.81;;;6.24;75.12
25526;BME280;13424;48.424;11.258;2023-02-13T12:39:17;97528.78;;;6.62;74.81
25526;BME280;13424;48.424;11.258;2023-02-13T12:42:20;97520.38;;;6.42;74.79
25526;BME280;13424;48.424;11.258;2023-02-13T12:48:17;97506.66;;;5.40;77.63
25526;BME280;13424;48.424;11.258;2023-02-13T12:51:47;97511.03;;;5.81;77.15
25526;BME280;13424;48.424;11.258;2023-02-13T12:54:31;97510.09;;;6.23;75.05
25526;BME280;13424;48.424;11.258;2023-02-13T12:57:33;97514.00;;;5.70;76.84
25526;BME280;13424;48.424;11.258;2023-02-13T13:00:40;97514.13;;;4.76;79.71
25526;BME280;13424;48.424;11.258;2023-02-13T13:03:34;97511.31;;;5.54;77.87
25526;BME280;13424;48.424;11.258;2023-02-13T13:06:13;97513.44;;;6.09;76.08
25526;BME280;13424;48.424;11.258;2023-02-13T13:09:24;97511.63;;;6.18;75.95
25526;BME280;13424;48.424;11.258;2023-02-13T13:12:38;97516.41;;;6.30;75.84
25526;BME280;13424;48.424;11.258;2023-02-13T13:23:52;97504.44;;;5.85;76.54
25526;BME280;13424;48.424;11.258;2023-02-13T13:26:41;97500.31;;;6.07;76.40
25526;BME280;13424;48.424;11.258;2023-02-13T13:29:22;97511.38;;;5.78;77.05
25526;BME280;13424;48.424;11.258;2023-02-13T13:31:57;97509.31;;;5.48;78.21
25526;BME280;13424;48.424;11.258;2023-02-13T13:34:34;97508.00;;;5.60;77.90
25526;BME280;13424;48.424;11.258;2023-02-13T13:37:25;97505.75;;;5.81;76.63
25526;BME280;13424;48.424;11.258;2023-02-13T13:40:15;97509.78;;;6.02;77.21
25526;BME280;13424;48.424;11.258;2023-02-13T13:43:09;97506.94;;;5.37;78.78
25526;BME280;13424;48.424;11.258;2023-02-13T13:45:57;97507.06;;;5.69;78.47
25526;BME280;13424;48.424;11.258;2023-02-13T13:48:58;97509.72;;;5.77;77.92
25526;BME280;13424;48.424;11.258;2023-02-13T13:51:29;97495.75;;;5.59;78.49
25526;BME280;13424;48.424;11.258;2023-02-13T14:05:26;97509.34;;;5.64;77.83
25526;BME280;13424;48.424;11.258;2023-02-13T14:08:07;97507.00;;;5.53;78.38
25526;BME280;13424;48.424;11.258;2023-02-13T14:13:34;97502.16;;;6.15;76.23
25526;BME280;13424;48.424;11.258;2023-02-13T14:16:01;97500.03;;;5.44;79.21
25526;BME280;13424;48.424;11.258;2023-02-13T14:18:27;97499.75;;;5.55;78.76
25526;BME280;13424;48.424;11.258;2023-02-13T14:21:00;97501.09;;;5.75;78.21
25526;BME280;13424;48.424;11.258;2023-02-13T14:36:42;97497.19;;;5.37;79.11
25526;BME280;13424;48.424;11.258;2023-02-13T14:44:35;97496.34;;;5.37;79.39
25526;BME280;13424;48.424;11.258;2023-02-13T14:47:21;97496.34;;;5.37;78.76
25526;BME280;13424;48.424;11.258;2023-02-13T14:49:47;97502.41;;;5.63;78.07
25526;BME280;13424;48.424;11.258;2023-02-13T14:52:23;97493.06;;;5.35;79.64
25526;BME280;13424;48.424;11.258;2023-02-13T14:55:01;97488.81;;;5.58;79.48
25526;BME280;13424;48.424;11.258;2023-02-13T14:57:39;97483.91;;;5.87;78.00
25526;BME280;13424;48.424;11.258;2023-02-13T15:00:48;97488.59;;;5.35;80.01
25526;BME280;13424;48.424;11.258;2023-02-13T15:03:40;97489.28;;;5.03;80.37
25526;BME280;13424;48.424;11.258;2023-02-13T15:06:34;97480.81;;;5.33;78.98
25526;BME280;13424;48.424;11.258;2023-02-13T15:09:05;97482.03;;;5.05;80.77
25526;BME280;13424;48.424;11.258;2023-02-13T15:11:42;97468.19;;;5.19;79.37
25526;BME280;13424;48.424;11.258;2023-02-13T15:14:35;97473.31;;;5.21;80.05
25526;BME280;13424;48.424;11.258;2023-02-13T15:17:06;97478.25;;;5.66;78.77
25526;BME280;13424;48.424;11.258;2023-02-13T15:19:36;97480.94;;;6.15;76.95
25526;BME280;13424;48.424;11.258;2023-02-13T15:22:04;97477.25;;;5.83;78.10
25526;BME280;13424;48.424;11.258;2023-02-13T15:24:46;97475.34;;;6.18;76.78
25526;BME280;13424;48.424;11.258;2023-02-13T15:27:27;97481.41;;;5.62;79.10
25526;BME280;13424;48.424;11.258;2023-02-13T15:29:58;97481.53;;;5.60;78.57
25526;BME280;13424;48.424;11.258;2023-02-13T15:32:35;97484.28;;;5.93;77.39
25526;BME280;13424;48.424;11.258;2023-02-13T15:37:47;97480.81;;;6.17;77.27
25526;BME280;13424;48.424;11.258;2023-02-13T15:40:22;97477.66;;;6.13;76.97
25526;BME280;13424;48.424;11.258;2023-02-13T15:42:49;97472.97;;;6.39;76.08